createdAt,value
2019-02-25T00:01:32.867Z,35.61
2019-02-25T00:04:03.593Z,35.97
2019-02-25T00:06:34.055Z,34.64
2019-02-25T00:09:05.583Z,33.37
2019-02-25T00:11:36.246Z,34.67
2019-02-25T00:14:07.028Z,35.23
2019-02-25T00:16:37.600Z,36.47
2019-02-25T00:19:08.229Z,34.77
2019-02-25T00:21:38.688Z,32.79
2019-02-25T00:24:09.280Z,40.25
2019-02-25T00:26:39.844Z,31.50
2019-02-25T00:29:10.389Z,35.25
2019-02-25T00:31:40.907Z,54.62
2019-02-25T00:34:11.443Z,33.06
2019-02-25T00:36:41.958Z,32.18
2019-02-25T00:39:12.601Z,31.44
2019-02-25T00:41:43.330Z,32.48
2019-02-25T00:44:13.865Z,31.64
2019-02-25T00:46:44.370Z,34.16
2019-02-25T00:49:14.922Z,30.85
2019-02-25T00:51:45.201Z,30.98
2019-02-25T00:54:15.773Z,31.88
2019-02-25T00:56:46.612Z,33.35
2019-02-25T00:59:17.028Z,31.89
2019-02-25T01:01:47.456Z,33.05
2019-02-25T01:04:17.989Z,32.99
2019-02-25T01:06:48.623Z,37.45
2019-02-25T01:09:19.018Z,30.23
2019-02-25T01:11:49.425Z,30.09
2019-02-25T01:14:19.775Z,32.01
2019-02-25T01:16:50.555Z,30.49
2019-02-25T01:19:21.420Z,30.81
2019-02-25T01:21:51.741Z,33.54
2019-02-25T01:24:22.270Z,29.15
2019-02-25T01:26:53.015Z,29.96
2019-02-25T01:29:23.442Z,32.60
2019-02-25T01:31:53.863Z,32.51
2019-02-25T01:34:24.297Z,39.10
2019-02-25T01:36:54.828Z,33.45
2019-02-25T01:39:25.482Z,31.00
2019-02-25T01:41:55.909Z,50.05
2019-02-25T01:44:26.306Z,37.81
2019-02-25T01:46:56.647Z,38.10
2019-02-25T01:49:27.158Z,42.54
2019-02-25T01:51:57.462Z,34.18
2019-02-25T01:54:28.116Z,31.37
2019-02-25T01:56:58.957Z,36.24
2019-02-25T01:59:29.676Z,31.00
2019-02-25T02:02:00.009Z,32.49
2019-02-25T02:04:30.746Z,35.07
2019-02-25T02:07:01.196Z,37.54
2019-02-25T02:09:31.499Z,40.01
2019-02-25T02:12:02.020Z,43.40
2019-02-25T02:14:32.541Z,37.11
2019-02-25T02:17:03.617Z,39.19
2019-02-25T02:19:34.141Z,35.37
2019-02-25T02:22:05.056Z,36.12
2019-02-25T02:24:35.466Z,46.18
2019-02-25T02:27:05.997Z,33.71
2019-02-25T02:29:36.582Z,38.87
2019-02-25T02:32:07.340Z,35.82
2019-02-25T02:34:37.846Z,45.89
2019-02-25T02:37:08.149Z,37.54
2019-02-25T02:39:38.554Z,46.38
2019-02-25T02:42:22.660Z,45.73
2019-02-25T02:45:31.243Z,32.34
2019-02-25T02:48:10.797Z,41.16
2019-02-25T02:50:41.285Z,34.85
2019-02-25T02:53:11.691Z,33.58
2019-02-25T02:55:42.484Z,53.37
2019-02-25T02:58:12.881Z,39.91
2019-02-25T03:00:43.294Z,37.45
2019-02-25T03:03:13.703Z,35.89
2019-02-25T03:05:44.160Z,35.27
2019-02-25T03:08:14.691Z,51.96
2019-02-25T03:10:45.363Z,35.90
2019-02-25T03:13:15.657Z,31.26
2019-02-25T03:15:46.052Z,56.35
2019-02-25T03:18:16.840Z,40.46
2019-02-25T03:20:47.346Z,32.54
2019-02-25T03:23:17.742Z,37.04
2019-02-25T03:25:48.172Z,40.29
2019-02-25T03:28:18.743Z,35.81
2019-02-25T03:30:49.246Z,43.58
2019-02-25T03:33:19.805Z,44.72
2019-02-25T03:35:50.482Z,33.32
2019-02-25T03:38:20.913Z,54.46
2019-02-25T03:40:51.346Z,31.96
2019-02-25T03:43:21.972Z,31.32
2019-02-25T03:45:52.710Z,31.91
2019-02-25T03:48:23.019Z,30.93
2019-02-25T03:50:53.497Z,31.10
2019-02-25T03:53:23.895Z,31.43
2019-02-25T03:58:52.531Z,36.37
2019-02-25T04:01:23.250Z,32.23
2019-02-25T04:03:59.651Z,31.89
2019-02-25T04:06:29.992Z,32.25
2019-02-25T04:09:00.370Z,33.37
2019-02-25T04:11:30.777Z,34.35
2019-02-25T04:14:01.169Z,33.41
2019-02-25T04:16:31.745Z,35.36
2019-02-25T04:19:02.387Z,35.47
2019-02-25T04:21:38.490Z,34.97
2019-02-25T04:24:08.858Z,41.25
2019-02-25T04:26:39.161Z,35.29
2019-02-25T04:29:09.591Z,34.93
2019-02-25T04:31:40.311Z,35.56
2019-02-25T04:34:10.685Z,35.51
2019-02-25T04:36:41.413Z,34.67
2019-02-25T04:39:11.842Z,34.86
2019-02-25T04:41:42.460Z,34.86
2019-02-25T04:44:12.880Z,35.35
2019-02-25T04:47:03.413Z,50.98
2019-02-25T04:49:33.892Z,34.08
2019-02-25T04:52:04.212Z,34.74
2019-02-25T04:54:34.746Z,34.58
2019-02-25T04:57:04.938Z,36.71
2019-02-25T04:59:34.817Z,49.44
2019-02-25T05:02:04.801Z,34.51
2019-02-25T05:04:34.977Z,43.95
2019-02-25T05:07:05.180Z,34.19
2019-02-25T05:09:35.193Z,34.92
2019-02-25T05:12:05.196Z,33.69
2019-02-25T05:14:35.375Z,36.96
2019-02-25T05:17:05.587Z,33.67
2019-02-25T05:19:35.478Z,33.97
2019-02-25T05:22:05.465Z,46.35
2019-02-25T05:24:35.648Z,32.69
2019-02-25T05:27:05.731Z,32.54
2019-02-25T05:29:35.935Z,32.21
2019-02-25T05:32:06.156Z,33.31
2019-02-25T05:34:36.050Z,32.66
2019-02-25T05:37:06.142Z,37.50
2019-02-25T05:39:36.498Z,33.81
2019-02-25T05:42:07.155Z,39.28
2019-02-25T05:44:37.333Z,32.21
2019-02-25T05:47:07.314Z,32.92
2019-02-25T05:49:37.995Z,34.04
2019-02-25T05:52:08.228Z,31.87
2019-02-25T05:54:38.114Z,31.62
2019-02-25T05:57:08.217Z,31.56
2019-02-25T05:59:38.420Z,31.83
2019-02-25T06:02:08.617Z,31.37
2019-02-25T06:04:38.702Z,31.30
2019-02-25T06:07:10.465Z,32.15
2019-02-25T06:09:40.857Z,31.16
2019-02-25T06:12:10.853Z,31.68
2019-02-25T06:14:41.054Z,32.23
2019-02-25T06:17:11.371Z,32.67
2019-02-25T06:19:41.262Z,31.64
2019-02-25T06:22:11.351Z,31.70
2019-02-25T06:24:41.549Z,31.45
2019-02-25T06:27:11.758Z,31.05
2019-02-25T06:29:41.635Z,31.49
2019-02-25T06:32:11.612Z,34.18
2019-02-25T06:34:41.909Z,39.17
2019-02-25T06:37:12.120Z,47.35
2019-02-25T06:39:42.019Z,29.98
2019-02-25T06:42:11.905Z,29.84
2019-02-25T06:44:42.127Z,30.07
2019-02-25T06:47:12.310Z,35.84
2019-02-25T06:49:42.459Z,32.73
2019-02-25T06:52:12.352Z,30.59
2019-02-25T06:54:42.539Z,30.71
2019-02-25T06:57:12.719Z,39.00
2019-02-25T06:59:42.621Z,31.50
2019-02-25T07:02:12.597Z,42.76
2019-02-25T07:05:07.976Z,40.19
2019-02-25T07:07:55.706Z,34.90
2019-02-25T07:10:53.476Z,29.47
2019-02-25T07:13:44.993Z,29.89
2019-02-25T07:16:32.865Z,37.81
2019-02-25T07:19:18.991Z,32.83
2019-02-25T07:22:07.704Z,29.41
2019-02-25T07:25:02.782Z,28.85
2019-02-25T07:27:50.957Z,40.51
2019-02-25T07:30:54.831Z,43.54
2019-02-25T07:33:42.190Z,41.29
2019-02-25T07:36:43.445Z,28.31
2019-02-25T07:39:35.489Z,35.64
2019-02-25T07:42:36.486Z,28.13
2019-02-25T07:45:33.917Z,37.08
2019-02-25T07:48:29.135Z,29.37
2019-02-25T07:51:14.332Z,40.83
2019-02-25T07:54:06.955Z,27.61
2019-02-25T07:57:11.642Z,25.93
2019-02-25T07:59:59.443Z,28.36
2019-02-25T08:02:39.650Z,25.81
2019-02-25T08:05:37.843Z,25.76
2019-02-25T08:08:16.336Z,25.04
2019-02-25T08:11:08.358Z,24.78
2019-02-25T08:13:53.942Z,25.59
2019-02-25T08:16:43.265Z,29.12
2019-02-25T08:19:41.760Z,26.77
2019-02-25T08:22:45.925Z,24.87
2019-02-25T08:25:48.399Z,24.80
2019-02-25T08:28:52.559Z,36.87
2019-02-25T08:31:47.569Z,25.79
2019-02-25T08:34:39.210Z,26.03
2019-02-25T08:37:48.784Z,26.24
2019-02-25T08:40:38.771Z,40.11
2019-02-25T08:43:43.540Z,43.41
2019-02-25T08:46:22.297Z,41.45
2019-02-25T08:49:05.004Z,42.17
2019-02-25T08:51:35.307Z,31.84
2019-02-25T08:54:05.329Z,26.93
2019-02-25T08:56:35.488Z,28.02
2019-02-25T08:59:05.682Z,28.25
2019-02-25T09:01:35.775Z,27.60
2019-02-25T09:04:05.970Z,30.92
2019-02-25T09:06:36.169Z,29.12
2019-02-25T09:09:07.711Z,27.47
2019-02-25T09:11:37.819Z,27.21
2019-02-25T09:14:08.018Z,27.02
2019-02-25T09:16:38.223Z,27.42
2019-02-25T09:19:08.137Z,28.68
2019-02-25T09:21:38.022Z,27.06
2019-02-25T09:24:08.196Z,27.14
2019-02-25T09:26:38.385Z,26.73
2019-02-25T09:29:08.378Z,27.49
2019-02-25T09:31:38.281Z,27.29
2019-02-25T09:34:08.475Z,27.21
2019-02-25T09:36:38.663Z,26.61
2019-02-25T09:39:13.007Z,44.93
2019-02-25T09:41:43.221Z,27.49
2019-02-25T09:44:13.219Z,32.20
2019-02-25T09:46:43.229Z,26.04
2019-02-25T09:49:13.492Z,27.50
2019-02-25T09:51:43.997Z,28.06
2019-02-25T09:54:14.334Z,26.75
2019-02-25T09:56:44.509Z,32.06
2019-02-25T09:59:14.801Z,27.47
2019-02-25T10:01:45.018Z,38.27
2019-02-25T10:04:15.036Z,27.41
2019-02-25T10:06:45.013Z,26.51
2019-02-25T10:09:15.214Z,26.88
2019-02-25T10:11:45.481Z,27.23
2019-02-25T10:14:15.356Z,26.90
2019-02-25T10:16:45.352Z,26.91
2019-02-25T10:19:15.550Z,27.23
2019-02-25T10:21:45.638Z,42.30
2019-02-25T10:24:17.151Z,28.01
2019-02-25T10:26:47.419Z,27.83
2019-02-25T10:29:17.409Z,27.67
2019-02-25T10:31:47.404Z,38.25
2019-02-25T10:34:18.052Z,28.84
2019-02-25T10:36:50.169Z,28.19
2019-02-25T10:39:20.067Z,27.84
2019-02-25T10:41:51.171Z,27.47
2019-02-25T10:44:21.878Z,27.02
2019-02-25T10:46:52.450Z,27.38
2019-02-25T10:49:24.425Z,28.30
2019-02-25T10:51:55.527Z,28.09
2019-02-25T10:54:26.009Z,27.49
2019-02-25T10:57:02.952Z,28.70
2019-02-25T10:59:34.648Z,28.46
2019-02-25T11:02:05.088Z,28.80
2019-02-25T11:04:35.093Z,29.02
2019-02-25T11:07:07.281Z,29.11
2019-02-25T11:09:51.372Z,29.06
2019-02-25T11:12:23.549Z,29.98
2019-02-25T11:14:53.385Z,28.57
2019-02-25T11:17:24.432Z,29.32
2019-02-25T11:19:56.569Z,30.67
2019-02-25T11:22:26.976Z,30.02
2019-02-25T11:24:57.802Z,28.89
2019-02-25T11:27:28.588Z,28.98
2019-02-25T11:29:59.793Z,34.36
2019-02-25T11:32:30.056Z,29.40
2019-02-25T11:35:01.299Z,28.40
2019-02-25T11:37:31.925Z,27.94
2019-02-25T11:40:04.279Z,27.96
2019-02-25T11:42:34.411Z,37.42
2019-02-25T11:45:05.680Z,34.12
2019-02-25T11:47:36.058Z,39.56
2019-02-25T11:50:06.776Z,30.57
2019-02-25T11:52:36.990Z,30.31
2019-02-25T11:55:08.055Z,27.58
2019-02-25T11:57:38.277Z,27.79
2019-02-25T12:00:14.945Z,27.55
2019-02-25T12:02:45.558Z,28.09
2019-02-25T12:05:17.188Z,27.33
2019-02-25T12:07:48.033Z,27.56
2019-02-25T12:10:18.664Z,27.30
2019-02-25T12:12:48.688Z,27.37
2019-02-25T12:15:18.882Z,27.88
2019-02-25T12:17:49.282Z,27.74
2019-02-25T12:20:19.823Z,28.81
2019-02-25T12:22:50.167Z,29.12
2019-02-25T12:25:20.416Z,29.87
2019-02-25T12:27:50.962Z,29.63
2019-02-25T12:30:21.595Z,29.29
2019-02-25T12:32:52.129Z,28.77
2019-02-25T12:35:22.859Z,28.76
2019-02-25T12:37:53.590Z,28.05
2019-02-25T12:40:24.169Z,29.22
2019-02-25T12:42:54.272Z,28.09
2019-02-25T12:45:24.559Z,28.51
2019-02-25T12:47:55.088Z,28.83
2019-02-25T12:50:25.491Z,29.26
2019-02-25T12:52:56.318Z,28.42
2019-02-25T12:55:27.158Z,29.19
2019-02-25T12:57:57.697Z,29.86
2019-02-25T13:00:27.686Z,29.05
2019-02-25T13:02:58.035Z,28.78
2019-02-25T13:05:28.027Z,29.49
2019-02-25T13:07:57.936Z,29.49
2019-02-25T13:10:28.225Z,29.22
2019-02-25T13:12:58.427Z,29.48
2019-02-25T13:15:28.533Z,29.97
2019-02-25T13:18:00.130Z,29.87
2019-02-25T13:20:30.843Z,29.41
2019-02-25T13:23:01.039Z,28.81
2019-02-25T13:25:30.946Z,28.74
2019-02-25T13:28:02.084Z,28.72
2019-02-25T13:30:32.783Z,28.47
2019-02-25T13:33:03.053Z,28.56
2019-02-25T13:35:33.060Z,28.97
2019-02-25T13:38:02.972Z,29.15
2019-02-25T13:40:33.544Z,28.46
2019-02-25T13:43:03.618Z,28.67
2019-02-25T13:45:33.891Z,28.88
2019-02-25T13:48:04.105Z,29.05
2019-02-25T13:50:34.195Z,29.16
2019-02-25T13:53:04.629Z,28.54
2019-02-25T13:55:35.016Z,28.55
2019-02-25T13:58:05.389Z,28.40
2019-02-25T14:00:35.648Z,28.77
2019-02-25T14:03:05.862Z,28.81
2019-02-25T14:05:36.158Z,28.40
2019-02-25T14:08:06.363Z,28.52
2019-02-25T14:10:36.374Z,28.30
2019-02-25T14:13:06.690Z,28.01
2019-02-25T14:15:36.889Z,27.97
2019-02-25T14:18:07.164Z,28.35
2019-02-25T14:20:37.062Z,28.52
2019-02-25T14:23:07.269Z,27.94
2019-02-25T14:25:38.389Z,27.70
2019-02-25T14:28:09.048Z,27.61
2019-02-25T14:30:40.026Z,28.34
2019-02-25T14:33:12.672Z,28.45
2019-02-25T14:35:42.263Z,28.45
2019-02-25T14:38:15.892Z,27.66
2019-02-25T14:40:46.601Z,27.43
2019-02-25T14:43:17.676Z,27.89
2019-02-25T14:45:53.089Z,28.18
2019-02-25T14:48:21.048Z,28.82
2019-02-25T14:50:52.130Z,29.10
2019-02-25T14:53:22.588Z,28.92
2019-02-25T14:55:55.281Z,28.55
2019-02-25T14:58:24.636Z,28.13
2019-02-25T15:00:55.006Z,28.52
2019-02-25T15:03:27.006Z,29.13
2019-02-25T15:05:59.146Z,29.03
2019-02-25T15:08:30.627Z,28.75
2019-02-25T15:11:02.404Z,28.83
2019-02-25T15:13:35.048Z,28.67
2019-02-25T15:16:05.331Z,29.01
2019-02-25T15:18:35.818Z,29.33
2019-02-25T15:21:11.687Z,29.07
2019-02-25T15:23:42.773Z,29.40
2019-02-25T15:26:15.096Z,29.33
2019-02-25T15:28:44.894Z,29.71
2019-02-25T15:31:16.502Z,29.51
2019-02-25T15:33:47.200Z,29.61
2019-02-25T15:36:17.876Z,30.05
2019-02-25T15:38:49.313Z,29.88
2019-02-25T15:41:19.449Z,30.07
2019-02-25T15:43:49.730Z,29.63
2019-02-25T15:46:22.204Z,29.50
2019-02-25T15:48:51.691Z,29.60
2019-02-25T15:51:22.085Z,29.79
2019-02-25T15:53:54.103Z,29.94
2019-02-25T15:56:24.643Z,30.09
2019-02-25T15:58:54.524Z,30.17
2019-02-25T16:01:59.961Z,30.14
2019-02-25T16:04:31.860Z,30.18
2019-02-25T16:07:05.647Z,30.71
2019-02-25T16:09:34.024Z,30.56
2019-02-25T16:12:05.871Z,31.06
2019-02-25T16:14:38.865Z,31.28
2019-02-25T16:17:08.727Z,31.49
2019-02-25T16:19:46.442Z,31.78
2019-02-25T16:22:11.848Z,32.81
2019-02-25T16:24:43.606Z,33.55
2019-02-25T16:27:14.435Z,33.09
2019-02-25T16:29:44.725Z,32.98
2019-02-25T16:32:16.903Z,32.67
2019-02-25T16:34:46.734Z,32.56
2019-02-25T16:48:24.222Z,33.42
2019-02-25T16:50:52.469Z,33.81
2019-02-25T16:53:22.740Z,33.99
2019-02-25T16:55:53.132Z,34.17
2019-02-25T16:58:23.149Z,34.36
2019-02-25T17:00:56.022Z,34.74
2019-02-25T17:03:25.672Z,35.31
2019-02-25T17:05:55.764Z,35.44
2019-02-25T17:08:26.566Z,36.27
2019-02-25T17:10:59.818Z,40.20
2019-02-25T17:13:32.465Z,39.88
2019-02-25T17:16:02.704Z,39.49
2019-02-25T17:18:33.315Z,40.26
2019-02-25T17:21:05.174Z,41.31
2019-02-25T17:23:37.045Z,41.34
2019-02-25T17:26:07.719Z,40.73
2019-02-25T17:28:39.139Z,40.96
2019-02-25T17:31:11.127Z,41.47
2019-02-25T17:33:41.056Z,41.28
2019-02-25T17:36:12.417Z,41.84
2019-02-25T17:38:44.919Z,41.57
2019-02-25T17:41:15.075Z,42.16
2019-02-25T17:43:45.069Z,41.11
2019-02-25T17:46:15.275Z,41.12
2019-02-25T17:48:46.131Z,42.06
2019-02-25T17:51:18.347Z,40.94
2019-02-25T17:53:49.919Z,41.53
2019-02-25T17:56:20.710Z,41.54
2019-02-25T17:58:52.016Z,41.41
2019-02-25T18:01:24.179Z,42.11
2019-02-25T18:03:53.971Z,42.00
2019-02-25T18:06:29.467Z,41.32
2019-02-25T18:08:57.684Z,43.20
2019-02-25T18:11:28.102Z,42.65
2019-02-25T18:13:58.264Z,45.29
2019-02-25T18:16:28.464Z,45.52
2019-02-25T18:18:58.666Z,45.27
2019-02-25T18:21:29.036Z,45.23
2019-02-25T18:23:59.129Z,45.40
2019-02-25T18:26:31.102Z,46.06
2019-02-25T18:29:01.514Z,46.87
2019-02-25T18:31:32.094Z,46.93
2019-02-25T18:34:02.302Z,47.09
2019-02-25T18:36:33.215Z,47.11
2019-02-25T18:39:03.776Z,45.99
2019-02-25T18:41:34.370Z,47.27
2019-02-25T18:44:05.311Z,46.58
2019-02-25T18:46:36.560Z,46.88
2019-02-25T18:49:07.374Z,46.61
2019-02-25T18:51:39.473Z,47.31
2019-02-25T18:54:09.858Z,47.55
2019-02-25T18:56:42.058Z,46.78
2019-02-25T18:59:15.523Z,46.51
2019-02-25T19:01:45.359Z,46.02
2019-02-25T19:04:17.579Z,46.51
2019-02-25T19:06:47.919Z,46.25
2019-02-25T19:09:25.110Z,47.01
2019-02-25T19:11:56.163Z,47.04
2019-02-25T19:14:28.614Z,47.47
2019-02-25T19:16:59.788Z,47.96
2019-02-25T19:19:33.722Z,47.36
2019-02-25T19:22:02.116Z,47.27
2019-02-25T19:24:33.602Z,47.63
2019-02-25T19:27:06.578Z,47.59
2019-02-25T19:29:36.813Z,47.84
2019-02-25T19:32:07.004Z,48.85
2019-02-25T19:34:39.233Z,50.13
2019-02-25T19:37:10.340Z,49.50
2019-02-25T19:39:42.098Z,48.85
2019-02-25T19:42:15.451Z,49.32
2019-02-25T19:44:44.514Z,49.88
2019-02-25T19:47:16.732Z,49.17
2019-02-25T19:49:46.680Z,48.74
2019-02-25T19:52:17.274Z,48.33
2019-02-25T19:54:48.788Z,48.67
2019-02-25T19:57:21.017Z,48.65
2019-02-25T19:59:52.894Z,48.72
2019-02-25T20:02:24.661Z,49.00
2019-02-25T20:04:54.772Z,47.97
2019-02-25T20:07:27.925Z,48.58
2019-02-25T20:09:57.860Z,49.28
2019-02-25T20:12:28.396Z,50.11
2019-02-25T20:14:58.660Z,50.34
2019-02-25T20:17:30.635Z,50.57
2019-02-25T20:20:02.952Z,50.68
2019-02-25T20:22:34.473Z,50.79
2019-02-25T20:25:05.852Z,49.89
2019-02-25T20:27:36.287Z,49.08
2019-02-25T20:30:08.175Z,49.38
2019-02-25T20:32:38.976Z,49.78
2019-02-25T20:35:14.008Z,50.08
2019-02-25T20:37:43.714Z,51.35
2019-02-25T20:40:17.079Z,51.70
2019-02-25T20:42:49.077Z,52.46
2019-02-25T20:45:23.001Z,52.08
2019-02-25T20:47:52.245Z,52.01
2019-02-25T20:50:23.583Z,51.33
2019-02-25T20:52:53.691Z,50.62
2019-02-25T20:55:24.988Z,51.96
2019-02-25T20:57:55.976Z,52.31
2019-02-25T21:00:26.383Z,52.55
2019-02-25T21:02:56.569Z,52.85
2019-02-25T21:05:27.369Z,51.66
2019-02-25T21:07:59.745Z,52.45
2019-02-25T21:10:32.600Z,52.88
2019-02-25T21:13:02.316Z,53.98
2019-02-25T21:15:35.468Z,53.43
2019-02-25T21:18:07.530Z,53.39
2019-02-25T21:20:36.323Z,53.52
2019-02-25T21:23:08.366Z,53.82
2019-02-25T21:25:38.743Z,55.06
2019-02-25T21:28:09.564Z,55.12
2019-02-25T21:30:41.794Z,54.52
2019-02-25T21:33:15.317Z,52.73
2019-02-25T21:35:44.510Z,53.07
2019-02-25T21:38:14.593Z,52.83
2019-02-25T21:40:46.168Z,53.83
2019-02-25T21:43:18.577Z,54.35
2019-02-25T21:45:50.426Z,54.41
2019-02-25T21:48:23.050Z,55.56
2019-02-25T21:50:52.009Z,56.12
2019-02-25T21:53:21.901Z,56.41
2019-02-25T21:55:53.557Z,55.53
2019-02-25T21:58:25.433Z,55.26
2019-02-25T22:00:55.854Z,55.89
2019-02-25T22:03:25.891Z,56.93
2019-02-25T22:05:58.775Z,56.93
2019-02-25T22:08:29.047Z,57.16
2019-02-25T22:11:11.996Z,55.69
2019-02-25T22:13:31.712Z,55.74
2019-02-25T22:16:03.429Z,55.86
2019-02-25T22:18:34.152Z,55.49
2019-02-25T22:21:09.237Z,56.82
2019-02-25T22:23:37.313Z,56.74
2019-02-25T22:26:07.433Z,57.25
2019-02-25T22:28:39.418Z,57.31
2019-02-25T22:31:10.807Z,57.58
2019-02-25T22:33:41.240Z,57.09
2019-02-25T22:36:11.449Z,56.72
2019-02-25T22:38:41.412Z,56.45
2019-02-25T22:41:11.307Z,56.16
2019-02-25T22:43:43.736Z,56.22
2019-02-25T22:46:13.406Z,56.15
2019-02-25T22:48:45.075Z,56.77
2019-02-25T22:51:15.026Z,56.15
2019-02-25T22:53:45.216Z,55.58
2019-02-25T22:56:15.871Z,54.93
2019-02-25T22:58:47.088Z,54.54
2019-02-25T23:01:18.115Z,53.43
2019-02-25T23:03:50.540Z,52.57
2019-02-25T23:06:21.322Z,52.17
2019-02-25T23:08:53.401Z,50.79
2019-02-25T23:11:26.119Z,50.28
2019-02-25T23:13:56.501Z,49.61
2019-02-25T23:16:26.683Z,50.32
2019-02-25T23:18:56.667Z,52.14
2019-02-25T23:21:28.793Z,50.17
2019-02-25T23:24:00.488Z,50.61
2019-02-25T23:26:30.497Z,50.55
2019-02-25T23:29:00.692Z,51.20
2019-02-25T23:31:30.759Z,51.40
2019-02-25T23:34:00.946Z,50.79
2019-02-25T23:36:31.139Z,50.64
2019-02-25T23:39:01.703Z,49.63
2019-02-25T23:41:36.274Z,49.12
2019-02-25T23:44:04.672Z,49.16
2019-02-25T23:46:37.152Z,49.40
2019-02-25T23:49:06.683Z,49.47
2019-02-25T23:51:37.750Z,49.31
2019-02-25T23:54:11.845Z,49.25
2019-02-25T23:56:40.410Z,49.23
2019-02-25T23:59:12.696Z,49.29
